sensor_id;sensor_type;location;lat;lon;timestamp;P1;durP1;ratioP1;P2;durP2;ratioP2
5458;SDS011;2752;49.992;8.422;2022-07-23T00:01:17;10.50;;;6.97;;
5458;SDS011;2752;49.992;8.422;2022-07-23T00:03:45;11.80;;;6.83;;
5458;SDS011;2752;49.992;8.422;2022-07-23T00:06:11;9.43;;;6.80;;
5458;SDS011;2752;49.992;8.422;2022-07-23T00:08:38;15.20;;;6.57;;
5458;SDS011;2752;49.992;8.422;2022-07-23T00:11:05;13.07;;;7.33;;
5458;SDS011;2752;49.992;8.422;2022-07-23T00:13:32;15.03;;;8.00;;
5458;SDS011;2752;49.992;8.422;2022-07-23T00:15:59;10.00;;;7.20;;
5458;SDS011;2752;49.992;8.422;2022-07-23T00:18:26;9.93;;;6.57;;
5458;SDS011;2752;49.992;8.422;2022-07-23T00:20:54;10.47;;;7.50;;
5458;SDS011;2752;49.992;8.422;2022-07-23T00:23:21;11.30;;;7.00;;
5458;SDS011;2752;49.992;8.422;2022-07-23T00:25:49;13.50;;;7.27;;
5458;SDS011;2752;49.992;8.422;2022-07-23T00:28:16;14.57;;;6.73;;
5458;SDS011;2752;49.992;8.422;2022-07-23T00:30:43;11.93;;;6.80;;
5458;SDS011;2752;49.992;8.422;2022-07-23T00:33:10;8.63;;;6.20;;
5458;SDS011;2752;49.992;8.422;2022-07-23T00:35:39;14.07;;;6.60;;
5458;SDS011;2752;49.992;8.422;2022-07-23T00:38:08;10.10;;;6.43;;
5458;SDS011;2752;49.992;8.422;2022-07-23T00:40:36;10.10;;;6.77;;
5458;SDS011;2752;49.992;8.422;2022-07-23T00:43:03;11.40;;;6.73;;
5458;SDS011;2752;49.992;8.422;2022-07-23T00:45:30;9.57;;;6.70;;
5458;SDS011;2752;49.992;8.422;2022-07-23T00:47:57;12.77;;;6.90;;
5458;SDS011;2752;49.992;8.422;2022-07-23T00:50:24;13.90;;;6.37;;
5458;SDS011;2752;49.992;8.422;2022-07-23T00:52:51;9.80;;;6.23;;
5458;SDS011;2752;49.992;8.422;2022-07-23T00:55:20;13.57;;;7.70;;
5458;SDS011;2752;49.992;8.422;2022-07-23T00:57:47;15.50;;;6.60;;
5458;SDS011;2752;49.992;8.422;2022-07-23T01:00:14;12.63;;;6.40;;
5458;SDS011;2752;49.992;8.422;2022-07-23T01:02:42;9.77;;;6.80;;
5458;SDS011;2752;49.992;8.422;2022-07-23T01:05:09;26.83;;;7.63;;
5458;SDS011;2752;49.992;8.422;2022-07-23T01:07:36;9.37;;;6.00;;
5458;SDS011;2752;49.992;8.422;2022-07-23T01:10:05;10.27;;;6.53;;
5458;SDS011;2752;49.992;8.422;2022-07-23T01:12:54;9.40;;;6.17;;
5458;SDS011;2752;49.992;8.422;2022-07-23T01:15:22;9.57;;;6.50;;
5458;SDS011;2752;49.992;8.422;2022-07-23T01:17:49;10.73;;;6.00;;
5458;SDS011;2752;49.992;8.422;2022-07-23T01:20:18;14.30;;;7.60;;
5458;SDS011;2752;49.992;8.422;2022-07-23T01:22:46;11.50;;;7.50;;
5458;SDS011;2752;49.992;8.422;2022-07-23T01:25:17;12.40;;;6.50;;
5458;SDS011;2752;49.992;8.422;2022-07-23T01:27:44;10.70;;;7.20;;
5458;SDS011;2752;49.992;8.422;2022-07-23T01:30:11;9.13;;;6.23;;
5458;SDS011;2752;49.992;8.422;2022-07-23T01:32:38;13.30;;;7.00;;
5458;SDS011;2752;49.992;8.422;2022-07-23T01:35:07;12.80;;;6.77;;
5458;SDS011;2752;49.992;8.422;2022-07-23T01:37:34;7.13;;;5.20;;
5458;SDS011;2752;49.992;8.422;2022-07-23T01:40:03;11.20;;;6.47;;
5458;SDS011;2752;49.992;8.422;2022-07-23T01:42:32;12.10;;;7.10;;
5458;SDS011;2752;49.992;8.422;2022-07-23T01:44:58;11.73;;;7.43;;
5458;SDS011;2752;49.992;8.422;2022-07-23T01:47:25;13.60;;;7.40;;
5458;SDS011;2752;49.992;8.422;2022-07-23T01:49:52;10.33;;;7.20;;
5458;SDS011;2752;49.992;8.422;2022-07-23T01:52:18;13.10;;;7.13;;
5458;SDS011;2752;49.992;8.422;2022-07-23T01:54:45;10.73;;;7.43;;
5458;SDS011;2752;49.992;8.422;2022-07-23T01:57:13;10.60;;;6.60;;
5458;SDS011;2752;49.992;8.422;2022-07-23T01:59:40;9.97;;;7.33;;
5458;SDS011;2752;49.992;8.422;2022-07-23T02:02:06;19.60;;;8.57;;
5458;SDS011;2752;49.992;8.422;2022-07-23T02:04:33;12.00;;;6.97;;
5458;SDS011;2752;49.992;8.422;2022-07-23T02:07:01;17.53;;;7.60;;
5458;SDS011;2752;49.992;8.422;2022-07-23T02:09:28;11.30;;;7.20;;
5458;SDS011;2752;49.992;8.422;2022-07-23T02:11:54;12.30;;;7.27;;
5458;SDS011;2752;49.992;8.422;2022-07-23T02:14:23;11.97;;;7.10;;
5458;SDS011;2752;49.992;8.422;2022-07-23T02:16:49;8.70;;;6.00;;
5458;SDS011;2752;49.992;8.422;2022-07-23T02:19:16;15.20;;;7.10;;
5458;SDS011;2752;49.992;8.422;2022-07-23T02:21:42;12.23;;;7.57;;
5458;SDS011;2752;49.992;8.422;2022-07-23T02:24:09;11.80;;;7.77;;
5458;SDS011;2752;49.992;8.422;2022-07-23T02:26:36;12.20;;;6.63;;
5458;SDS011;2752;49.992;8.422;2022-07-23T02:29:03;9.57;;;6.37;;
5458;SDS011;2752;49.992;8.422;2022-07-23T02:31:31;12.13;;;6.80;;
5458;SDS011;2752;49.992;8.422;2022-07-23T02:33:58;10.30;;;6.87;;
5458;SDS011;2752;49.992;8.422;2022-07-23T02:36:25;14.70;;;7.50;;
5458;SDS011;2752;49.992;8.422;2022-07-23T02:38:51;12.10;;;7.13;;
5458;SDS011;2752;49.992;8.422;2022-07-23T02:41:18;13.83;;;8.10;;
5458;SDS011;2752;49.992;8.422;2022-07-23T02:43:45;11.80;;;7.10;;
5458;SDS011;2752;49.992;8.422;2022-07-23T02:46:11;12.97;;;6.93;;
5458;SDS011;2752;49.992;8.422;2022-07-23T02:48:39;17.40;;;7.90;;
5458;SDS011;2752;49.992;8.422;2022-07-23T02:51:06;11.67;;;7.00;;
5458;SDS011;2752;49.992;8.422;2022-07-23T02:53:33;10.37;;;7.33;;
5458;SDS011;2752;49.992;8.422;2022-07-23T02:55:59;16.70;;;6.60;;
5458;SDS011;2752;49.992;8.422;2022-07-23T02:58:26;12.00;;;6.40;;
5458;SDS011;2752;49.992;8.422;2022-07-23T03:00:53;12.17;;;7.13;;
5458;SDS011;2752;49.992;8.422;2022-07-23T03:03:19;13.50;;;7.80;;
5458;SDS011;2752;49.992;8.422;2022-07-23T03:05:47;17.73;;;8.17;;
5458;SDS011;2752;49.992;8.422;2022-07-23T03:08:14;13.00;;;7.57;;
5458;SDS011;2752;49.992;8.422;2022-07-23T03:10:41;13.30;;;7.70;;
5458;SDS011;2752;49.992;8.422;2022-07-23T03:13:07;11.50;;;7.53;;
5458;SDS011;2752;49.992;8.422;2022-07-23T03:15:34;12.03;;;7.67;;
5458;SDS011;2752;49.992;8.422;2022-07-23T03:18:01;17.33;;;7.73;;
5458;SDS011;2752;49.992;8.422;2022-07-23T03:20:28;11.57;;;7.50;;
5458;SDS011;2752;49.992;8.422;2022-07-23T03:22:56;20.20;;;7.90;;
5458;SDS011;2752;49.992;8.422;2022-07-23T03:25:22;14.10;;;7.30;;
5458;SDS011;2752;49.992;8.422;2022-07-23T03:27:49;15.33;;;7.10;;
5458;SDS011;2752;49.992;8.422;2022-07-23T03:30:16;16.30;;;7.77;;
5458;SDS011;2752;49.992;8.422;2022-07-23T03:32:42;13.07;;;7.70;;
5458;SDS011;2752;49.992;8.422;2022-07-23T03:35:09;13.53;;;7.90;;
5458;SDS011;2752;49.992;8.422;2022-07-23T03:37:36;14.90;;;7.80;;
5458;SDS011;2752;49.992;8.422;2022-07-23T03:40:05;16.30;;;8.03;;
5458;SDS011;2752;49.992;8.422;2022-07-23T03:42:32;14.63;;;8.23;;
5458;SDS011;2752;49.992;8.422;2022-07-23T03:44:59;11.27;;;7.00;;
5458;SDS011;2752;49.992;8.422;2022-07-23T03:47:26;11.73;;;7.97;;
5458;SDS011;2752;49.992;8.422;2022-07-23T03:49:53;14.93;;;7.47;;
5458;SDS011;2752;49.992;8.422;2022-07-23T03:52:19;11.43;;;7.70;;
5458;SDS011;2752;49.992;8.422;2022-07-23T03:54:46;11.67;;;6.93;;
5458;SDS011;2752;49.992;8.422;2022-07-23T03:57:14;16.43;;;7.60;;
5458;SDS011;2752;49.992;8.422;2022-07-23T03:59:42;13.37;;;8.47;;
5458;SDS011;2752;49.992;8.422;2022-07-23T04:02:08;12.63;;;8.00;;
5458;SDS011;2752;49.992;8.422;2022-07-23T04:04:35;19.23;;;7.70;;
5458;SDS011;2752;49.992;8.422;2022-07-23T04:07:02;14.67;;;7.70;;
5458;SDS011;2752;49.992;8.422;2022-07-23T04:09:29;18.37;;;7.60;;
5458;SDS011;2752;49.992;8.422;2022-07-23T04:11:56;14.27;;;8.40;;
5458;SDS011;2752;49.992;8.422;2022-07-23T04:14:24;14.13;;;8.47;;
5458;SDS011;2752;49.992;8.422;2022-07-23T04:16:51;12.20;;;7.77;;
5458;SDS011;2752;49.992;8.422;2022-07-23T04:19:17;13.40;;;8.37;;
5458;SDS011;2752;49.992;8.422;2022-07-23T04:21:44;12.63;;;7.67;;
5458;SDS011;2752;49.992;8.422;2022-07-23T04:24:11;16.50;;;7.43;;
5458;SDS011;2752;49.992;8.422;2022-07-23T04:26:37;11.70;;;7.53;;
5458;SDS011;2752;49.992;8.422;2022-07-23T04:29:04;11.83;;;7.63;;
5458;SDS011;2752;49.992;8.422;2022-07-23T04:31:32;13.77;;;8.00;;
5458;SDS011;2752;49.992;8.422;2022-07-23T04:33:59;13.70;;;7.80;;
5458;SDS011;2752;49.992;8.422;2022-07-23T04:36:25;10.33;;;6.80;;
5458;SDS011;2752;49.992;8.422;2022-07-23T04:38:52;12.90;;;7.77;;
5458;SDS011;2752;49.992;8.422;2022-07-23T04:41:19;13.33;;;8.00;;
5458;SDS011;2752;49.992;8.422;2022-07-23T04:43:45;12.10;;;7.10;;
5458;SDS011;2752;49.992;8.422;2022-07-23T04:46:12;11.93;;;8.37;;
5458;SDS011;2752;49.992;8.422;2022-07-23T04:48:40;11.67;;;7.83;;
5458;SDS011;2752;49.992;8.422;2022-07-23T04:51:07;16.07;;;8.50;;
5458;SDS011;2752;49.992;8.422;2022-07-23T04:53:36;18.70;;;8.27;;
5458;SDS011;2752;49.992;8.422;2022-07-23T04:56:03;15.80;;;8.60;;
5458;SDS011;2752;49.992;8.422;2022-07-23T04:58:30;17.90;;;10.03;;
5458;SDS011;2752;49.992;8.422;2022-07-23T05:00:57;16.57;;;8.77;;
5458;SDS011;2752;49.992;8.422;2022-07-23T05:03:24;12.90;;;7.97;;
5458;SDS011;2752;49.992;8.422;2022-07-23T05:05:52;12.60;;;8.07;;
5458;SDS011;2752;49.992;8.422;2022-07-23T05:08:18;16.87;;;9.17;;
5458;SDS011;2752;49.992;8.422;2022-07-23T05:10:45;11.30;;;7.30;;
5458;SDS011;2752;49.992;8.422;2022-07-23T05:13:13;16.87;;;8.60;;
5458;SDS011;2752;49.992;8.422;2022-07-23T05:15:40;17.77;;;8.70;;
5458;SDS011;2752;49.992;8.422;2022-07-23T05:18:07;18.30;;;9.00;;
5458;SDS011;2752;49.992;8.422;2022-07-23T05:20:34;15.93;;;8.43;;
5458;SDS011;2752;49.992;8.422;2022-07-23T05:23:02;14.53;;;8.27;;
5458;SDS011;2752;49.992;8.422;2022-07-23T05:25:28;13.17;;;7.80;;
5458;SDS011;2752;49.992;8.422;2022-07-23T05:27:55;15.17;;;8.47;;
5458;SDS011;2752;49.992;8.422;2022-07-23T05:30:21;12.93;;;7.70;;
5458;SDS011;2752;49.992;8.422;2022-07-23T05:32:48;13.73;;;8.50;;
5458;SDS011;2752;49.992;8.422;2022-07-23T05:35:15;11.90;;;7.83;;
5458;SDS011;2752;49.992;8.422;2022-07-23T05:37:42;17.47;;;8.60;;
5458;SDS011;2752;49.992;8.422;2022-07-23T05:40:10;17.23;;;9.47;;
5458;SDS011;2752;49.992;8.422;2022-07-23T05:42:38;17.40;;;9.70;;
5458;SDS011;2752;49.992;8.422;2022-07-23T05:45:06;21.40;;;7.60;;
5458;SDS011;2752;49.992;8.422;2022-07-23T05:47:38;17.53;;;8.47;;
5458;SDS011;2752;49.992;8.422;2022-07-23T05:50:06;11.33;;;8.20;;
5458;SDS011;2752;49.992;8.422;2022-07-23T05:52:33;14.90;;;8.73;;
5458;SDS011;2752;49.992;8.422;2022-07-23T05:55:00;16.27;;;8.43;;
5458;SDS011;2752;49.992;8.422;2022-07-23T05:57:28;14.37;;;8.20;;
5458;SDS011;2752;49.992;8.422;2022-07-23T05:59:54;14.37;;;8.20;;
5458;SDS011;2752;49.992;8.422;2022-07-23T06:02:21;13.27;;;7.77;;
5458;SDS011;2752;49.992;8.422;2022-07-23T06:04:48;9.80;;;6.90;;
5458;SDS011;2752;49.992;8.422;2022-07-23T06:07:14;18.27;;;8.27;;
5458;SDS011;2752;49.992;8.422;2022-07-23T06:09:41;12.13;;;8.00;;
5458;SDS011;2752;49.992;8.422;2022-07-23T06:12:08;12.67;;;7.80;;
5458;SDS011;2752;49.992;8.422;2022-07-23T06:14:36;13.60;;;8.07;;
5458;SDS011;2752;49.992;8.422;2022-07-23T06:17:02;11.83;;;7.60;;
5458;SDS011;2752;49.992;8.422;2022-07-23T06:19:29;15.53;;;7.90;;
5458;SDS011;2752;49.992;8.422;2022-07-23T06:21:56;18.13;;;8.83;;
5458;SDS011;2752;49.992;8.422;2022-07-23T06:24:22;13.80;;;7.90;;
5458;SDS011;2752;49.992;8.422;2022-07-23T06:26:49;12.17;;;7.00;;
5458;SDS011;2752;49.992;8.422;2022-07-23T06:29:16;13.63;;;7.97;;
5458;SDS011;2752;49.992;8.422;2022-07-23T06:31:43;11.70;;;7.47;;
5458;SDS011;2752;49.992;8.422;2022-07-23T06:34:10;11.57;;;7.10;;
5458;SDS011;2752;49.992;8.422;2022-07-23T06:36:37;11.60;;;7.67;;
5458;SDS011;2752;49.992;8.422;2022-07-23T06:39:03;13.73;;;6.97;;
5458;SDS011;2752;49.992;8.422;2022-07-23T06:41:30;13.47;;;7.10;;
5458;SDS011;2752;49.992;8.422;2022-07-23T06:43:57;12.20;;;8.50;;
5458;SDS011;2752;49.992;8.422;2022-07-23T06:46:23;9.90;;;6.73;;
5458;SDS011;2752;49.992;8.422;2022-07-23T06:48:51;11.20;;;7.40;;
5458;SDS011;2752;49.992;8.422;2022-07-23T06:51:18;11.57;;;7.73;;
5458;SDS011;2752;49.992;8.422;2022-07-23T06:53:45;17.40;;;6.60;;
5458;SDS011;2752;49.992;8.422;2022-07-23T06:56:11;14.50;;;6.53;;
5458;SDS011;2752;49.992;8.422;2022-07-23T06:58:38;10.67;;;6.97;;
5458;SDS011;2752;49.992;8.422;2022-07-23T07:01:04;12.80;;;7.03;;
5458;SDS011;2752;49.992;8.422;2022-07-23T07:03:31;10.80;;;6.77;;
5458;SDS011;2752;49.992;8.422;2022-07-23T07:05:59;9.87;;;6.33;;
5458;SDS011;2752;49.992;8.422;2022-07-23T07:08:27;10.40;;;6.87;;
5458;SDS011;2752;49.992;8.422;2022-07-23T07:10:54;15.03;;;7.43;;
5458;SDS011;2752;49.992;8.422;2022-07-23T07:13:20;16.03;;;6.37;;
5458;SDS011;2752;49.992;8.422;2022-07-23T07:15:47;11.60;;;6.87;;
5458;SDS011;2752;49.992;8.422;2022-07-23T07:18:14;13.13;;;6.30;;
5458;SDS011;2752;49.992;8.422;2022-07-23T07:20:40;10.10;;;6.43;;
5458;SDS011;2752;49.992;8.422;2022-07-23T07:23:09;8.70;;;5.70;;
5458;SDS011;2752;49.992;8.422;2022-07-23T07:25:35;9.73;;;6.70;;
5458;SDS011;2752;49.992;8.422;2022-07-23T07:28:02;10.30;;;6.60;;
5458;SDS011;2752;49.992;8.422;2022-07-23T07:30:29;10.97;;;6.30;;
5458;SDS011;2752;49.992;8.422;2022-07-23T07:32:56;12.20;;;7.07;;
5458;SDS011;2752;49.992;8.422;2022-07-23T07:35:24;9.97;;;7.03;;
5458;SDS011;2752;49.992;8.422;2022-07-23T07:37:51;12.00;;;6.63;;
5458;SDS011;2752;49.992;8.422;2022-07-23T07:40:19;9.63;;;6.10;;
5458;SDS011;2752;49.992;8.422;2022-07-23T07:42:46;11.33;;;6.30;;
5458;SDS011;2752;49.992;8.422;2022-07-23T07:45:13;12.60;;;6.83;;
5458;SDS011;2752;49.992;8.422;2022-07-23T07:47:40;8.43;;;5.40;;
5458;SDS011;2752;49.992;8.422;2022-07-23T07:50:07;10.60;;;5.67;;
5458;SDS011;2752;49.992;8.422;2022-07-23T07:52:34;11.73;;;6.10;;
5458;SDS011;2752;49.992;8.422;2022-07-23T07:55:02;8.87;;;6.33;;
5458;SDS011;2752;49.992;8.422;2022-07-23T07:57:30;9.80;;;6.57;;
5458;SDS011;2752;49.992;8.422;2022-07-23T07:59:56;10.57;;;7.17;;
5458;SDS011;2752;49.992;8.422;2022-07-23T08:02:23;13.20;;;7.00;;
5458;SDS011;2752;49.992;8.422;2022-07-23T08:04:50;12.70;;;6.50;;
5458;SDS011;2752;49.992;8.422;2022-07-23T08:07:17;16.20;;;7.10;;
5458;SDS011;2752;49.992;8.422;2022-07-23T08:09:43;9.30;;;6.30;;
5458;SDS011;2752;49.992;8.422;2022-07-23T08:12:10;9.53;;;6.23;;
5458;SDS011;2752;49.992;8.422;2022-07-23T08:14:38;12.37;;;7.13;;
5458;SDS011;2752;49.992;8.422;2022-07-23T08:17:04;14.40;;;8.07;;
5458;SDS011;2752;49.992;8.422;2022-07-23T08:19:31;13.07;;;6.57;;
5458;SDS011;2752;49.992;8.422;2022-07-23T08:21:58;15.93;;;7.40;;
5458;SDS011;2752;49.992;8.422;2022-07-23T08:24:24;12.67;;;7.20;;
5458;SDS011;2752;49.992;8.422;2022-07-23T08:26:51;20.33;;;7.47;;
5458;SDS011;2752;49.992;8.422;2022-07-23T08:29:17;9.53;;;7.17;;
5458;SDS011;2752;49.992;8.422;2022-07-23T08:31:45;10.17;;;7.27;;
5458;SDS011;2752;49.992;8.422;2022-07-23T08:34:12;13.70;;;7.70;;
5458;SDS011;2752;49.992;8.422;2022-07-23T08:36:39;10.37;;;6.23;;
5458;SDS011;2752;49.992;8.422;2022-07-23T08:39:05;12.57;;;6.30;;
5458;SDS011;2752;49.992;8.422;2022-07-23T08:41:32;14.33;;;7.00;;
5458;SDS011;2752;49.992;8.422;2022-07-23T08:44:00;11.47;;;7.37;;
5458;SDS011;2752;49.992;8.422;2022-07-23T08:46:27;13.80;;;7.30;;
5458;SDS011;2752;49.992;8.422;2022-07-23T08:48:55;11.37;;;7.57;;
5458;SDS011;2752;49.992;8.422;2022-07-23T08:51:24;12.53;;;7.83;;
5458;SDS011;2752;49.992;8.422;2022-07-23T08:53:52;11.10;;;7.60;;
5458;SDS011;2752;49.992;8.422;2022-07-23T08:56:21;15.07;;;7.23;;
5458;SDS011;2752;49.992;8.422;2022-07-23T08:58:48;10.13;;;7.40;;
5458;SDS011;2752;49.992;8.422;2022-07-23T09:01:15;11.10;;;6.97;;
5458;SDS011;2752;49.992;8.422;2022-07-23T09:03:41;16.37;;;8.93;;
5458;SDS011;2752;49.992;8.422;2022-07-23T09:06:11;11.33;;;7.03;;
5458;SDS011;2752;49.992;8.422;2022-07-23T09:08:38;12.97;;;6.73;;
5458;SDS011;2752;49.992;8.422;2022-07-23T09:11:06;9.13;;;6.50;;
5458;SDS011;2752;49.992;8.422;2022-07-23T09:13:35;10.47;;;7.17;;
5458;SDS011;2752;49.992;8.422;2022-07-23T09:16:05;10.07;;;7.17;;
5458;SDS011;2752;49.992;8.422;2022-07-23T09:18:34;17.00;;;6.50;;
5458;SDS011;2752;49.992;8.422;2022-07-23T09:21:08;13.43;;;6.77;;
5458;SDS011;2752;49.992;8.422;2022-07-23T09:23:40;9.97;;;6.17;;
5458;SDS011;2752;49.992;8.422;2022-07-23T09:26:22;12.03;;;7.20;;
5458;SDS011;2752;49.992;8.422;2022-07-23T09:28:56;10.70;;;6.80;;
5458;SDS011;2752;49.992;8.422;2022-07-23T09:31:26;16.00;;;6.97;;
5458;SDS011;2752;49.992;8.422;2022-07-23T09:34:08;10.77;;;6.83;;
5458;SDS011;2752;49.992;8.422;2022-07-23T09:36:36;9.83;;;6.27;;
5458;SDS011;2752;49.992;8.422;2022-07-23T09:39:04;7.97;;;6.10;;
5458;SDS011;2752;49.992;8.422;2022-07-23T09:41:35;13.73;;;6.53;;
5458;SDS011;2752;49.992;8.422;2022-07-23T09:44:10;7.33;;;6.03;;
5458;SDS011;2752;49.992;8.422;2022-07-23T09:46:38;11.33;;;6.03;;
5458;SDS011;2752;49.992;8.422;2022-07-23T09:49:11;10.60;;;6.30;;
5458;SDS011;2752;49.992;8.422;2022-07-23T09:51:49;11.30;;;6.07;;
5458;SDS011;2752;49.992;8.422;2022-07-23T09:54:22;9.50;;;6.53;;
5458;SDS011;2752;49.992;8.422;2022-07-23T09:56:55;11.97;;;6.80;;
5458;SDS011;2752;49.992;8.422;2022-07-23T09:59:23;6.90;;;5.33;;
5458;SDS011;2752;49.992;8.422;2022-07-23T10:01:52;9.80;;;6.60;;
5458;SDS011;2752;49.992;8.422;2022-07-23T10:04:19;8.57;;;5.17;;
5458;SDS011;2752;49.992;8.422;2022-07-23T10:06:47;8.87;;;5.60;;
5458;SDS011;2752;49.992;8.422;2022-07-23T10:09:17;6.27;;;4.17;;
5458;SDS011;2752;49.992;8.422;2022-07-23T10:11:50;6.13;;;4.33;;
5458;SDS011;2752;49.992;8.422;2022-07-23T10:14:18;8.10;;;4.80;;
5458;SDS011;2752;49.992;8.422;2022-07-23T10:16:44;9.03;;;4.83;;
5458;SDS011;2752;49.992;8.422;2022-07-23T10:19:11;7.37;;;4.87;;
5458;SDS011;2752;49.992;8.422;2022-07-23T10:21:39;7.07;;;4.83;;
5458;SDS011;2752;49.992;8.422;2022-07-23T10:24:14;7.97;;;5.87;;
5458;SDS011;2752;49.992;8.422;2022-07-23T10:26:50;8.00;;;4.97;;
5458;SDS011;2752;49.992;8.422;2022-07-23T10:29:28;7.47;;;5.20;;
5458;SDS011;2752;49.992;8.422;2022-07-23T10:32:08;8.37;;;5.10;;
5458;SDS011;2752;49.992;8.422;2022-07-23T10:34:44;11.33;;;5.20;;
5458;SDS011;2752;49.992;8.422;2022-07-23T10:37:21;7.57;;;4.40;;
5458;SDS011;2752;49.992;8.422;2022-07-23T10:42:39;8.10;;;5.60;;
5458;SDS011;2752;49.992;8.422;2022-07-23T10:45:23;6.43;;;5.40;;
5458;SDS011;2752;49.992;8.422;2022-07-23T10:47:51;11.47;;;6.17;;
5458;SDS011;2752;49.992;8.422;2022-07-23T10:50:19;8.50;;;5.90;;
5458;SDS011;2752;49.992;8.422;2022-07-23T10:53:07;11.20;;;5.60;;
5458;SDS011;2752;49.992;8.422;2022-07-23T10:55:46;6.87;;;4.97;;
5458;SDS011;2752;49.992;8.422;2022-07-23T10:58:19;8.03;;;5.07;;
5458;SDS011;2752;49.992;8.422;2022-07-23T11:00:48;15.40;;;5.80;;
5458;SDS011;2752;49.992;8.422;2022-07-23T11:03:27;8.53;;;5.47;;
5458;SDS011;2752;49.992;8.422;2022-07-23T11:05:57;7.33;;;5.57;;
5458;SDS011;2752;49.992;8.422;2022-07-23T11:08:24;7.03;;;5.20;;
5458;SDS011;2752;49.992;8.422;2022-07-23T11:10:51;9.83;;;5.63;;
5458;SDS011;2752;49.992;8.422;2022-07-23T11:13:31;11.23;;;5.20;;
5458;SDS011;2752;49.992;8.422;2022-07-23T11:21:42;12.10;;;5.97;;
5458;SDS011;2752;49.992;8.422;2022-07-23T11:24:17;11.17;;;5.83;;
5458;SDS011;2752;49.992;8.422;2022-07-23T11:26:55;9.20;;;6.10;;
5458;SDS011;2752;49.992;8.422;2022-07-23T11:29:40;7.70;;;5.87;;
5458;SDS011;2752;49.992;8.422;2022-07-23T11:32:31;11.23;;;6.00;;
5458;SDS011;2752;49.992;8.422;2022-07-23T11:35:00;11.77;;;6.70;;
5458;SDS011;2752;49.992;8.422;2022-07-23T11:37:34;7.90;;;5.37;;
5458;SDS011;2752;49.992;8.422;2022-07-23T11:40:04;10.93;;;5.80;;
5458;SDS011;2752;49.992;8.422;2022-07-23T11:42:34;9.30;;;6.40;;
5458;SDS011;2752;49.992;8.422;2022-07-23T11:45:04;7.57;;;5.50;;
5458;SDS011;2752;49.992;8.422;2022-07-23T11:47:32;9.73;;;5.73;;
5458;SDS011;2752;49.992;8.422;2022-07-23T11:50:00;13.80;;;5.53;;
5458;SDS011;2752;49.992;8.422;2022-07-23T11:52:29;7.93;;;5.90;;
5458;SDS011;2752;49.992;8.422;2022-07-23T11:54:57;6.13;;;4.77;;
5458;SDS011;2752;49.992;8.422;2022-07-23T11:57:26;6.97;;;5.37;;
5458;SDS011;2752;49.992;8.422;2022-07-23T11:59:55;9.47;;;5.80;;
5458;SDS011;2752;49.992;8.422;2022-07-23T12:02:24;7.30;;;5.37;;
5458;SDS011;2752;49.992;8.422;2022-07-23T12:04:51;9.93;;;5.60;;
5458;SDS011;2752;49.992;8.422;2022-07-23T12:07:23;11.23;;;5.70;;
5458;SDS011;2752;49.992;8.422;2022-07-23T12:09:50;8.13;;;5.80;;
5458;SDS011;2752;49.992;8.422;2022-07-23T12:12:18;6.97;;;5.13;;
5458;SDS011;2752;49.992;8.422;2022-07-23T12:14:48;7.53;;;5.63;;
5458;SDS011;2752;49.992;8.422;2022-07-23T12:17:17;8.63;;;5.20;;
5458;SDS011;2752;49.992;8.422;2022-07-23T12:19:45;8.10;;;5.43;;
5458;SDS011;2752;49.992;8.422;2022-07-23T12:22:13;8.97;;;5.60;;
5458;SDS011;2752;49.992;8.422;2022-07-23T12:24:52;11.73;;;5.47;;
5458;SDS011;2752;49.992;8.422;2022-07-23T12:27:20;11.10;;;5.30;;
5458;SDS011;2752;49.992;8.422;2022-07-23T12:29:47;8.60;;;5.67;;
5458;SDS011;2752;49.992;8.422;2022-07-23T12:32:18;10.63;;;5.27;;
5458;SDS011;2752;49.992;8.422;2022-07-23T12:34:48;8.40;;;6.30;;
5458;SDS011;2752;49.992;8.422;2022-07-23T12:37:26;7.67;;;5.60;;
5458;SDS011;2752;49.992;8.422;2022-07-23T12:39:54;5.73;;;5.13;;
5458;SDS011;2752;49.992;8.422;2022-07-23T12:42:21;8.40;;;5.10;;
5458;SDS011;2752;49.992;8.422;2022-07-23T12:45:06;7.80;;;5.30;;
5458;SDS011;2752;49.992;8.422;2022-07-23T12:50:31;7.13;;;5.47;;
5458;SDS011;2752;49.992;8.422;2022-07-23T12:53:07;9.37;;;6.27;;
5458;SDS011;2752;49.992;8.422;2022-07-23T12:55:35;12.47;;;5.23;;
5458;SDS011;2752;49.992;8.422;2022-07-23T12:58:03;9.67;;;6.13;;
5458;SDS011;2752;49.992;8.422;2022-07-23T13:00:31;7.00;;;5.10;;
5458;SDS011;2752;49.992;8.422;2022-07-23T13:03:00;10.60;;;5.20;;
5458;SDS011;2752;49.992;8.422;2022-07-23T13:05:26;7.53;;;5.23;;
5458;SDS011;2752;49.992;8.422;2022-07-23T13:07:54;8.33;;;4.70;;
5458;SDS011;2752;49.992;8.422;2022-07-23T13:10:21;6.30;;;5.57;;
5458;SDS011;2752;49.992;8.422;2022-07-23T13:12:48;8.20;;;5.10;;
5458;SDS011;2752;49.992;8.422;2022-07-23T13:15:14;7.40;;;5.10;;
5458;SDS011;2752;49.992;8.422;2022-07-23T13:17:41;8.60;;;5.30;;
5458;SDS011;2752;49.992;8.422;2022-07-23T13:20:10;9.50;;;5.70;;
5458;SDS011;2752;49.992;8.422;2022-07-23T13:22:37;8.40;;;4.80;;
5458;SDS011;2752;49.992;8.422;2022-07-23T13:25:06;14.93;;;5.10;;
5458;SDS011;2752;49.992;8.422;2022-07-23T13:27:33;8.73;;;5.60;;
5458;SDS011;2752;49.992;8.422;2022-07-23T13:30:00;8.20;;;5.47;;
5458;SDS011;2752;49.992;8.422;2022-07-23T13:32:26;7.17;;;4.67;;
5458;SDS011;2752;49.992;8.422;2022-07-23T13:34:53;5.60;;;4.67;;
5458;SDS011;2752;49.992;8.422;2022-07-23T13:37:20;7.77;;;5.03;;
5458;SDS011;2752;49.992;8.422;2022-07-23T13:39:46;5.17;;;4.67;;
5458;SDS011;2752;49.992;8.422;2022-07-23T13:42:14;10.40;;;5.73;;
5458;SDS011;2752;49.992;8.422;2022-07-23T13:44:41;8.30;;;5.37;;
5458;SDS011;2752;49.992;8.422;2022-07-23T13:47:08;8.60;;;5.60;;
5458;SDS011;2752;49.992;8.422;2022-07-23T13:49:34;8.43;;;4.83;;
5458;SDS011;2752;49.992;8.422;2022-07-23T13:52:01;8.57;;;5.10;;
5458;SDS011;2752;49.992;8.422;2022-07-23T13:54:28;7.13;;;5.40;;
5458;SDS011;2752;49.992;8.422;2022-07-23T13:56:55;6.00;;;4.37;;
5458;SDS011;2752;49.992;8.422;2022-07-23T13:59:23;7.63;;;5.43;;
5458;SDS011;2752;49.992;8.422;2022-07-23T14:01:50;10.67;;;6.07;;
5458;SDS011;2752;49.992;8.422;2022-07-23T14:04:17;6.13;;;5.10;;
5458;SDS011;2752;49.992;8.422;2022-07-23T14:06:43;7.37;;;5.10;;
5458;SDS011;2752;49.992;8.422;2022-07-23T14:09:10;8.50;;;6.13;;
5458;SDS011;2752;49.992;8.422;2022-07-23T14:11:36;8.37;;;5.93;;
5458;SDS011;2752;49.992;8.422;2022-07-23T14:14:04;5.67;;;5.07;;
5458;SDS011;2752;49.992;8.422;2022-07-23T14:16:31;12.00;;;5.93;;
5458;SDS011;2752;49.992;8.422;2022-07-23T14:18:58;8.33;;;6.23;;
5458;SDS011;2752;49.992;8.422;2022-07-23T14:21:25;8.13;;;5.50;;
5458;SDS011;2752;49.992;8.422;2022-07-23T14:23:51;6.20;;;4.93;;
5458;SDS011;2752;49.992;8.422;2022-07-23T14:26:18;8.33;;;6.10;;
5458;SDS011;2752;49.992;8.422;2022-07-23T14:28:45;11.50;;;6.27;;
5458;SDS011;2752;49.992;8.422;2022-07-23T14:31:11;6.73;;;5.17;;
5458;SDS011;2752;49.992;8.422;2022-07-23T14:33:39;9.07;;;5.57;;
5458;SDS011;2752;49.992;8.422;2022-07-23T14:36:06;10.80;;;5.73;;
5458;SDS011;2752;49.992;8.422;2022-07-23T14:38:33;7.43;;;5.00;;
5458;SDS011;2752;49.992;8.422;2022-07-23T14:40:59;7.63;;;6.47;;
5458;SDS011;2752;49.992;8.422;2022-07-23T14:43:26;7.67;;;5.30;;
5458;SDS011;2752;49.992;8.422;2022-07-23T14:45:53;7.93;;;5.43;;
5458;SDS011;2752;49.992;8.422;2022-07-23T14:48:20;9.23;;;5.43;;
5458;SDS011;2752;49.992;8.422;2022-07-23T14:50:48;9.33;;;6.07;;
5458;SDS011;2752;49.992;8.422;2022-07-23T14:53:14;9.00;;;5.57;;
5458;SDS011;2752;49.992;8.422;2022-07-23T14:55:41;8.20;;;5.57;;
5458;SDS011;2752;49.992;8.422;2022-07-23T14:58:08;11.30;;;6.20;;
5458;SDS011;2752;49.992;8.422;2022-07-23T15:00:35;7.93;;;5.63;;
5458;SDS011;2752;49.992;8.422;2022-07-23T15:03:01;6.83;;;5.43;;
5458;SDS011;2752;49.992;8.422;2022-07-23T15:05:28;6.00;;;5.13;;
5458;SDS011;2752;49.992;8.422;2022-07-23T15:07:56;8.93;;;5.77;;
5458;SDS011;2752;49.992;8.422;2022-07-23T15:10:24;9.63;;;5.90;;
5458;SDS011;2752;49.992;8.422;2022-07-23T15:12:50;7.07;;;5.60;;
5458;SDS011;2752;49.992;8.422;2022-07-23T15:15:17;7.83;;;5.67;;
5458;SDS011;2752;49.992;8.422;2022-07-23T15:17:44;7.27;;;5.30;;
5458;SDS011;2752;49.992;8.422;2022-07-23T15:20:10;6.93;;;5.00;;
5458;SDS011;2752;49.992;8.422;2022-07-23T15:22:37;9.40;;;5.23;;
5458;SDS011;2752;49.992;8.422;2022-07-23T15:25:06;6.43;;;5.13;;